Time;durP1;ratioP1;P1;durP2;ratioP2;P2;SDS_P1;SDS_P2;PMS_P1;PMS_P2;Temp;Humidity;BMP_temperature;BMP_pressure;BME280_temperature;BME280_humidity;BME280_pressure;Samples;Min_cycle;Max_cycle;Signal;HPM_P1;HPM_P2
2022/01/16 00:04:06;;;;;;;297.98;45.45;;;0.10;99.90;;;;;;6125480;23;20378;-85
2022/01/16 00:06:39;;;;;;;88.80;39.95;;;0.00;99.90;;;;;;6123660;23;20006;-86
2022/01/16 00:09:05;;;;;;;107.38;42.30;;;-0.10;99.90;;;;;;6125278;23;20456;-86
2022/01/16 00:11:32;;;;;;;112.10;41.35;;;0.00;99.90;;;;;;6125105;23;20005;-86
2022/01/16 00:13:58;;;;;;;181.00;43.33;;;-0.10;99.90;;;;;;6124222;23;20002;-86
2022/01/16 00:16:23;;;;;;;135.05;41.10;;;0.10;99.90;;;;;;6098464;23;20014;-86
2022/01/16 00:18:49;;;;;;;262.10;47.03;;;0.10;99.90;;;;;;6124845;23;20076;-86
2022/01/16 00:21:39;;;;;;;428.77;48.63;;;0.00;99.90;;;;;;6123877;23;20006;-86
2022/01/16 00:24:05;;;;;;;343.98;45.53;;;-0.10;99.90;;;;;;6125647;23;20345;-86
2022/01/16 00:26:31;;;;;;;194.77;43.33;;;-0.10;99.90;;;;;;6124701;23;20009;-86
2022/01/16 00:28:57;;;;;;;237.80;44.85;;;-0.30;99.90;;;;;;6124401;23;20006;-86
2022/01/16 00:31:26;;;;;;;123.25;41.13;;;-0.20;99.90;;;;;;6124678;23;20017;-85
2022/01/16 00:33:52;;;;;;;136.80;41.92;;;-0.20;99.90;;;;;;6125256;23;19998;-86
2022/01/16 00:36:19;;;;;;;172.77;43.28;;;-0.20;99.90;;;;;;6124266;23;20018;-86
2022/01/16 00:38:46;;;;;;;181.15;41.95;;;-0.50;99.90;;;;;;6124709;23;20013;-84
2022/01/16 00:41:14;;;;;;;228.98;42.33;;;-0.30;99.90;;;;;;6124617;23;20460;-86
2022/01/16 00:43:40;;;;;;;122.38;42.30;;;-0.40;99.90;;;;;;6124018;23;19998;-86
2022/01/16 00:46:05;;;;;;;87.05;42.22;;;-0.60;99.90;;;;;;6124848;23;20009;-87
2022/01/16 00:48:31;;;;;;;100.00;41.47;;;-0.20;99.90;;;;;;6124091;23;20085;-86
2022/01/16 00:50:57;;;;;;;96.13;40.97;;;-0.20;99.90;;;;;;6124158;23;20383;-85
2022/01/16 00:53:23;;;;;;;248.02;46.45;;;-0.10;99.90;;;;;;6124366;23;20002;-86
2022/01/16 00:55:49;;;;;;;195.38;48.45;;;0.00;99.90;;;;;;6098783;23;20516;-85
2022/01/16 00:58:14;;;;;;;184.45;46.92;;;-0.40;99.90;;;;;;6124162;23;20012;-86
2022/01/16 01:00:40;;;;;;;231.43;45.97;;;-0.90;99.90;;;;;;6124397;23;20344;-86
2022/01/16 01:03:06;;;;;;;103.88;44.40;;;-0.40;99.90;;;;;;6098387;23;20001;-85
2022/01/16 01:05:34;;;;;;;138.15;44.40;;;-0.40;99.90;;;;;;6097694;23;20102;-86
2022/01/16 01:08:01;;;;;;;106.68;44.45;;;-0.40;99.90;;;;;;6124802;23;20428;-86
2022/01/16 01:10:34;;;;;;;529.75;54.85;;;-0.30;99.90;;;;;;6124596;23;20385;-85
2022/01/16 01:15:49;;;;;;;104.40;41.45;;;-0.20;99.90;;;;;;6124221;23;20341;-86
2022/01/16 01:18:15;;;;;;;126.88;41.45;;;-0.20;99.90;;;;;;6124481;23;20337;-86
2022/01/16 01:20:43;;;;;;;106.75;41.25;;;-0.10;99.90;;;;;;6123806;23;19998;-85
2022/01/16 01:23:10;;;;;;;108.18;41.22;;;-0.10;99.90;;;;;;6124461;23;20005;-86
2022/01/16 01:25:36;;;;;;;96.47;41.58;;;0.00;99.90;;;;;;6124608;23;20504;-86
2022/01/16 01:28:03;;;;;;;151.60;42.28;;;0.00;99.90;;;;;;6123520;23;20025;-86
2022/01/16 01:30:29;;;;;;;100.10;40.58;;;0.20;99.90;;;;;;6124300;23;20435;-86
2022/01/16 01:32:56;;;;;;;255.55;47.13;;;-0.10;99.90;;;;;;6124122;23;20033;-86
2022/01/16 01:35:22;;;;;;;344.92;49.20;;;-0.10;99.90;;;;;;6123096;23;20010;-86
2022/01/16 01:37:48;;;;;;;189.13;44.42;;;-0.20;99.90;;;;;;6124650;23;20002;-87
2022/01/16 01:40:23;;;;;;;163.52;44.22;;;-0.30;99.90;;;;;;6124041;23;20034;-86
2022/01/16 01:51:44;;;;;;;130.00;43.88;;;-0.20;99.90;;;;;;5923357;24;20017;-86
2022/01/16 01:54:11;;;;;;;220.32;49.15;;;-0.50;99.90;;;;;;5923255;24;20077;-86
2022/01/16 01:56:39;;;;;;;111.75;39.88;;;-1.20;99.90;;;;;;5922225;24;20045;-86
2022/01/16 01:59:05;;;;;;;129.98;40.80;;;-0.70;99.90;;;;;;5923206;24;20006;-86
2022/01/16 02:01:32;;;;;;;145.20;42.17;;;-0.50;99.90;;;;;;5925071;24;20035;-86
2022/01/16 02:03:58;;;;;;;106.25;41.15;;;-0.60;99.90;;;;;;5924310;24;20005;-85
2022/01/16 02:06:29;;;;;;;182.77;40.85;;;-0.60;99.90;;;;;;5925022;24;20020;-85
2022/01/16 02:08:57;;;;;;;228.52;44.10;;;-0.90;99.90;;;;;;5924514;24;20101;-85
2022/01/16 02:11:27;;;;;;;91.00;39.47;;;-0.70;99.90;;;;;;5924008;24;20013;-86
2022/01/16 02:14:24;;;;;;;116.35;41.33;;;-0.90;99.90;;;;;;5924404;24;20074;-85
2022/01/16 02:35:41;;;;;;;113.95;41.55;;;-1.20;99.90;;;;;;6126021;23;20022;-84
2022/01/16 02:38:11;;;;;;;126.18;42.08;;;-1.20;99.90;;;;;;6125595;23;20001;-84
2022/01/16 02:40:40;;;;;;;91.80;39.25;;;-1.10;99.90;;;;;;6125158;23;20098;-84
2022/01/16 02:43:05;;;;;;;97.13;41.30;;;-1.10;99.90;;;;;;6126234;23;20076;-86
2022/01/16 02:45:33;;;;;;;81.07;41.53;;;-0.90;99.90;;;;;;6125604;23;20388;-87
2022/01/16 02:48:03;;;;;;;81.20;39.80;;;-0.80;99.90;;;;;;6125094;23;20087;-87
2022/01/16 02:50:30;;;;;;;119.85;42.03;;;-0.80;99.90;;;;;;6125615;23;20069;-87
2022/01/16 02:52:56;;;;;;;91.00;39.25;;;-0.70;99.90;;;;;;6126443;23;20017;-87
2022/01/16 02:55:22;;;;;;;132.75;41.83;;;-0.70;99.90;;;;;;6124967;23;20006;-87
2022/01/16 02:57:50;;;;;;;114.88;39.15;;;-0.70;99.90;;;;;;6126069;23;20014;-87
2022/01/16 03:00:17;;;;;;;95.25;39.05;;;-0.70;99.90;;;;;;6125360;23;20009;-87
2022/01/16 03:02:43;;;;;;;139.77;39.53;;;-0.60;99.90;;;;;;6125490;23;20130;-87
2022/01/16 03:05:09;;;;;;;102.22;38.70;;;-0.60;99.90;;;;;;6125392;23;20051;-86
2022/01/16 03:07:34;;;;;;;88.80;37.53;;;-0.50;99.90;;;;;;6125587;23;20010;-87
2022/01/16 03:13:05;;;;;;;84.22;37.15;;;-0.60;99.90;;;;;;6125533;23;20011;-84
2022/01/16 03:15:30;;;;;;;78.32;37.13;;;-0.70;99.90;;;;;;6124188;23;20041;-84
2022/01/16 03:23:15;;;;;;;82.03;37.70;;;-0.80;99.90;;;;;;6125596;23;20012;-86
2022/01/16 03:25:41;;;;;;;86.32;37.92;;;-0.70;99.90;;;;;;6125318;23;20016;-87
2022/01/16 03:28:07;;;;;;;78.05;36.88;;;-0.90;99.90;;;;;;6125019;23;20032;-86
2022/01/16 03:30:32;;;;;;;88.72;37.60;;;-0.90;99.90;;;;;;6124462;23;20002;-87
2022/01/16 03:32:58;;;;;;;119.88;38.22;;;-0.70;99.90;;;;;;6125844;23;20463;-87
2022/01/16 03:35:24;;;;;;;78.13;36.38;;;-0.80;99.90;;;;;;6124826;23;20002;-86
2022/01/16 03:37:49;;;;;;;94.57;36.10;;;-0.80;99.90;;;;;;6125664;23;20005;-86
2022/01/16 03:40:16;;;;;;;89.72;36.20;;;-0.70;99.90;;;;;;6124870;23;20084;-87
2022/01/16 03:42:41;;;;;;;103.00;37.67;;;-0.40;99.90;;;;;;6124618;23;20002;-87
2022/01/16 03:45:09;;;;;;;98.28;38.67;;;-0.60;99.90;;;;;;6124535;23;20002;-87
2022/01/16 03:47:35;;;;;;;107.95;39.30;;;-0.50;99.90;;;;;;6124709;23;20052;-86
2022/01/16 03:50:02;;;;;;;121.47;38.78;;;-0.60;99.90;;;;;;6125230;23;20002;-86
2022/01/16 03:52:28;;;;;;;124.72;37.78;;;-0.10;99.90;;;;;;6125011;23;20329;-87
2022/01/16 03:54:54;;;;;;;119.80;37.70;;;-0.60;99.90;;;;;;6124698;23;20025;-87
2022/01/16 03:57:20;;;;;;;268.23;41.00;;;-0.90;99.90;;;;;;6124611;23;20084;-86
2022/01/16 03:59:45;;;;;;;145.40;37.92;;;-1.00;99.90;;;;;;6124486;23;20002;-87
2022/01/16 04:02:11;;;;;;;99.13;38.70;;;-0.90;99.90;;;;;;6125011;23;20005;-87
2022/01/16 04:04:36;;;;;;;117.70;40.53;;;-0.90;99.90;;;;;;6099066;23;20089;-86
2022/01/16 04:07:03;;;;;;;108.18;38.00;;;-0.90;99.90;;;;;;6125310;23;20006;-86
2022/01/16 04:09:29;;;;;;;84.35;38.72;;;-0.90;99.90;;;;;;6124536;23;20001;-87
2022/01/16 04:11:57;;;;;;;130.27;39.85;;;-0.90;99.90;;;;;;6124765;23;20002;-86
2022/01/16 04:17:19;;;;;;;103.38;41.70;;;-0.80;99.90;;;;;;6007552;23;20090;-87
2022/01/16 04:19:46;;;;;;;92.80;38.45;;;-0.70;99.90;;;;;;6007295;23;20014;-86
2022/01/16 04:22:13;;;;;;;91.82;39.50;;;-0.80;99.90;;;;;;6007239;23;20012;-87
2022/01/16 04:24:39;;;;;;;109.65;40.17;;;-0.80;99.90;;;;;;6006231;23;20019;-87
2022/01/16 04:27:06;;;;;;;104.00;39.85;;;-1.00;99.90;;;;;;6007624;23;20011;-87
2022/01/16 04:29:32;;;;;;;122.75;41.90;;;-1.00;99.90;;;;;;6006585;23;20007;-86
2022/01/16 04:31:58;;;;;;;113.00;40.25;;;-1.20;99.90;;;;;;6007129;23;20450;-87
2022/01/16 04:34:24;;;;;;;109.97;39.60;;;-1.20;99.90;;;;;;6007034;23;20814;-84
2022/01/16 04:36:49;;;;;;;109.72;41.78;;;-1.30;99.90;;;;;;6006750;23;20044;-84
2022/01/16 04:39:18;;;;;;;116.55;40.72;;;-1.60;99.90;;;;;;6006693;23;20011;-84
2022/01/16 04:44:28;;;;;;;94.97;39.65;;;-1.40;99.90;;;;;;6007028;23;20010;-87
2022/01/16 04:46:54;;;;;;;109.28;41.03;;;-1.60;99.90;;;;;;6007330;23;20087;-86
2022/01/16 04:49:20;;;;;;;112.80;39.08;;;-1.90;99.90;;;;;;6005984;23;20020;-87
2022/01/16 04:51:46;;;;;;;100.60;41.40;;;-2.20;99.90;;;;;;6007056;23;20011;-87
2022/01/16 04:54:12;;;;;;;106.93;40.45;;;-1.90;99.90;;;;;;6062883;23;20126;-87
2022/01/16 04:56:38;;;;;;;118.55;40.53;;;-1.50;99.90;;;;;;6123767;23;20041;-84
2022/01/16 04:59:04;;;;;;;106.00;39.85;;;-1.50;99.90;;;;;;6124661;23;20431;-85
2022/01/16 05:01:30;;;;;;;92.78;39.60;;;-1.50;99.90;;;;;;6124603;23;20030;-86
2022/01/16 05:03:55;;;;;;;95.35;40.25;;;-1.50;99.90;;;;;;6125017;23;20034;-87
2022/01/16 05:06:22;;;;;;;87.60;39.28;;;-1.60;99.90;;;;;;6124679;23;20076;-87
2022/01/16 05:08:47;;;;;;;86.93;38.55;;;-1.40;99.90;;;;;;6124200;23;20061;-87
2022/01/16 05:11:15;;;;;;;101.50;38.03;;;-1.20;99.90;;;;;;6123466;23;20429;-87
2022/01/16 05:18:53;;;;;;;77.93;37.08;;;-1.10;99.90;;;;;;6124268;23;20467;-84
2022/01/16 05:21:20;;;;;;;75.97;37.80;;;-1.10;99.90;;;;;;6124192;23;20458;-84
2022/01/16 05:23:46;;;;;;;88.65;38.13;;;-1.10;99.90;;;;;;6124271;23;20006;-85
2022/01/16 05:26:12;;;;;;;89.25;37.35;;;-1.20;99.90;;;;;;6098467;23;20475;-84
2022/01/16 05:28:38;;;;;;;69.93;36.60;;;-1.20;99.90;;;;;;6098305;23;20077;-87
2022/01/16 05:31:04;;;;;;;77.65;37.60;;;-1.40;99.90;;;;;;6124165;23;20472;-87
2022/01/16 05:33:30;;;;;;;64.80;36.45;;;-1.30;99.90;;;;;;6123396;23;20014;-87
2022/01/16 05:35:57;;;;;;;67.75;37.15;;;-1.30;99.90;;;;;;6125970;23;20040;-87
2022/01/16 05:38:22;;;;;;;77.30;34.47;;;-1.30;99.90;;;;;;6100344;23;20006;-86
2022/01/16 05:40:48;;;;;;;74.00;35.17;;;-1.70;99.90;;;;;;6126595;23;20006;-87
2022/01/16 05:43:14;;;;;;;69.82;35.75;;;-1.60;99.90;;;;;;6099535;23;20009;-85
2022/01/16 05:45:40;;;;;;;70.65;35.60;;;-1.80;99.90;;;;;;6126372;23;20054;-87
2022/01/16 05:48:06;;;;;;;78.18;35.88;;;-2.10;99.90;;;;;;6126271;23;20449;-85
2022/01/16 05:50:32;;;;;;;71.03;33.90;;;-1.90;99.90;;;;;;6125949;23;20002;-87
2022/01/16 05:52:59;;;;;;;73.35;32.42;;;-1.90;99.90;;;;;;6126912;23;20017;-86
2022/01/16 05:55:33;;;;;;;68.35;32.70;;;-2.00;99.90;;;;;;6099242;23;20414;-86
2022/01/16 05:57:59;;;;;;;67.10;33.30;;;-2.20;99.90;;;;;;6126181;23;20081;-87
2022/01/16 06:00:25;;;;;;;62.78;33.42;;;-2.30;99.90;;;;;;6125921;23;20405;-86
2022/01/16 06:02:50;;;;;;;54.75;31.48;;;-2.40;99.90;;;;;;6125817;23;20010;-87
2022/01/16 06:05:19;;;;;;;60.17;32.90;;;-2.50;99.90;;;;;;6125898;23;20002;-87
2022/01/16 06:07:50;;;;;;;65.57;34.70;;;-2.30;99.90;;;;;;6126059;23;20464;-87
2022/01/16 06:10:16;;;;;;;62.85;34.10;;;-2.10;99.90;;;;;;6125543;23;20029;-87
2022/01/16 06:12:42;;;;;;;69.00;35.15;;;-2.30;99.90;;;;;;6125947;23;20005;-87
2022/01/16 06:15:08;;;;;;;66.45;34.33;;;-2.20;99.90;;;;;;6099887;23;20005;-86
2022/01/16 06:17:33;;;;;;;61.78;33.00;;;-2.30;99.90;;;;;;6125597;23;20464;-87
2022/01/16 06:19:59;;;;;;;67.10;35.88;;;-2.20;99.90;;;;;;6099975;23;20061;-87
2022/01/16 06:22:25;;;;;;;65.93;35.25;;;-2.30;99.90;;;;;;6125912;23;20010;-86
2022/01/16 06:24:50;;;;;;;69.05;34.85;;;-2.40;99.90;;;;;;6126056;23;20002;-87
2022/01/16 06:27:16;;;;;;;59.35;33.88;;;-2.30;99.90;;;;;;6125684;23;20006;-86
2022/01/16 06:29:42;;;;;;;60.63;34.22;;;-2.40;99.90;;;;;;6100181;23;20002;-87
2022/01/16 06:32:07;;;;;;;58.92;33.17;;;-2.40;99.90;;;;;;6125300;23;20056;-87
2022/01/16 06:34:33;;;;;;;62.88;33.95;;;-2.50;99.90;;;;;;6125511;23;20429;-87
2022/01/16 06:36:59;;;;;;;62.63;33.90;;;-2.50;99.90;;;;;;6126251;23;20014;-87
2022/01/16 06:39:25;;;;;;;60.80;33.25;;;-2.40;99.90;;;;;;6125582;23;20077;-86
2022/01/16 06:41:51;;;;;;;61.50;33.85;;;-2.50;99.90;;;;;;6125912;23;20040;-87
2022/01/16 06:44:17;;;;;;;59.70;33.70;;;-2.50;99.90;;;;;;6125651;23;20048;-87
2022/01/16 06:46:43;;;;;;;59.03;32.78;;;-2.50;99.90;;;;;;6124785;23;20002;-87
2022/01/16 06:49:10;;;;;;;64.68;35.40;;;-2.30;99.90;;;;;;6125695;23;20021;-86
2022/01/16 06:51:36;;;;;;;63.17;34.90;;;-2.40;99.90;;;;;;6125642;23;20006;-87
2022/01/16 06:54:03;;;;;;;59.45;33.45;;;-2.40;99.90;;;;;;6125361;23;20057;-87
2022/01/16 06:56:29;;;;;;;60.25;34.03;;;-1.90;99.90;;;;;;6099492;23;20041;-87
2022/01/16 06:58:56;;;;;;;61.58;34.15;;;-2.60;99.90;;;;;;6125467;23;20476;-87
2022/01/16 07:01:21;;;;;;;59.75;32.58;;;-2.50;99.90;;;;;;6125206;23;20006;-87
2022/01/16 07:03:49;;;;;;;58.45;32.90;;;-2.50;99.90;;;;;;6125944;23;20002;-87
2022/01/16 07:06:15;;;;;;;59.42;32.35;;;-2.50;99.90;;;;;;6125989;23;20025;-87
2022/01/16 07:08:40;;;;;;;56.97;32.47;;;-2.40;99.90;;;;;;6124340;23;20034;-86
2022/01/16 07:11:07;;;;;;;63.05;33.47;;;-2.40;99.90;;;;;;6100028;23;20013;-87
2022/01/16 07:13:32;;;;;;;58.95;32.60;;;-2.40;99.90;;;;;;6125958;23;20002;-87
2022/01/16 07:15:58;;;;;;;59.80;34.17;;;-2.40;99.90;;;;;;6124587;23;20086;-87
2022/01/16 07:18:24;;;;;;;60.53;32.95;;;-2.30;99.90;;;;;;6098869;23;20058;-87
2022/01/16 07:20:50;;;;;;;59.15;33.95;;;-2.30;99.90;;;;;;6125073;23;20002;-87
2022/01/16 07:23:18;;;;;;;61.70;35.28;;;-2.40;99.90;;;;;;6125207;23;20429;-87
2022/01/16 07:25:44;;;;;;;58.10;34.03;;;-2.40;99.90;;;;;;6098908;23;20033;-87
2022/01/16 07:28:10;;;;;;;61.85;34.10;;;-2.30;99.90;;;;;;6125555;23;20006;-87
2022/01/16 07:30:37;;;;;;;64.47;36.90;;;-2.30;99.90;;;;;;6124757;23;20406;-87
2022/01/16 07:33:04;;;;;;;65.10;36.72;;;-2.30;99.90;;;;;;6125799;23;20480;-87
2022/01/16 07:35:30;;;;;;;59.88;33.67;;;-2.20;99.90;;;;;;6124919;23;20020;-87
2022/01/16 07:37:56;;;;;;;62.65;34.65;;;-2.20;99.90;;;;;;6125204;23;20002;-84
2022/01/16 07:40:22;;;;;;;62.90;34.85;;;-2.20;99.90;;;;;;6125584;23;20528;-87
2022/01/16 07:42:48;;;;;;;59.78;34.55;;;-2.00;99.90;;;;;;6125052;23;20026;-87
2022/01/16 07:45:14;;;;;;;58.35;33.03;;;-2.00;99.90;;;;;;6125043;23;20002;-86
2022/01/16 07:47:40;;;;;;;67.18;35.65;;;-2.10;99.90;;;;;;6124375;23;20010;-87
2022/01/16 07:50:10;;;;;;;57.75;33.17;;;-1.90;99.90;;;;;;6125519;23;20452;-86
2022/01/16 07:52:36;;;;;;;68.03;34.25;;;-1.80;99.90;;;;;;6124385;23;20336;-86
2022/01/16 07:55:02;;;;;;;59.60;34.38;;;-1.60;99.90;;;;;;6125085;23;20081;-87
2022/01/16 07:57:27;;;;;;;58.58;32.63;;;-1.40;99.90;;;;;;6124937;23;20445;-86
2022/01/16 07:59:53;;;;;;;62.03;34.17;;;-1.30;99.90;;;;;;6125179;23;20030;-87
2022/01/16 08:02:19;;;;;;;61.42;33.75;;;-1.00;99.90;;;;;;6124671;23;20009;-86
2022/01/16 08:04:45;;;;;;;60.60;34.65;;;-0.70;99.90;;;;;;6125100;23;20029;-87
2022/01/16 08:07:10;;;;;;;61.33;35.28;;;-0.30;99.90;;;;;;6124803;23;20009;-86
2022/01/16 08:09:39;;;;;;;64.68;35.35;;;-0.10;99.90;;;;;;6124730;23;20033;-87
2022/01/16 08:12:07;;;;;;;60.00;34.22;;;1.20;99.90;;;;;;6124951;23;20010;-85
2022/01/16 08:14:34;;;;;;;61.60;35.08;;;1.50;99.90;;;;;;6124741;23;20365;-85
2022/01/16 08:17:00;;;;;;;60.97;34.92;;;2.00;99.90;;;;;;6124493;23;20348;-84
2022/01/16 08:19:27;;;;;;;55.65;33.03;;;1.80;99.40;;;;;;6124226;23;20006;-84
2022/01/16 08:21:53;;;;;;;56.35;33.45;;;2.20;99.80;;;;;;6125681;23;20010;-84
2022/01/16 08:24:18;;;;;;;109.03;62.22;;;3.50;93.60;;;;;;6124716;23;20429;-84
2022/01/16 08:26:44;;;;;;;90.47;53.67;;;5.40;70.10;;;;;;6124675;23;20001;-87
2022/01/16 08:29:10;;;;;;;56.67;34.88;;;7.30;45.80;;;;;;6124697;23;20017;-88
2022/01/16 08:31:36;;;;;;;49.13;31.42;;;8.90;32.50;;;;;;6124767;23;20002;-87
2022/01/16 08:34:02;;;;;;;53.80;34.17;;;8.30;29.60;;;;;;6124012;23;20002;-87
2022/01/16 08:36:28;;;;;;;51.72;31.55;;;8.00;30.90;;;;;;6124243;23;20025;-87
2022/01/16 08:38:56;;;;;;;53.28;33.20;;;9.10;26.90;;;;;;6125086;23;20006;-87
2022/01/16 08:41:23;;;;;;;57.03;34.70;;;10.10;19.30;;;;;;6124487;23;20393;-87
2022/01/16 08:43:49;;;;;;;55.47;34.45;;;10.70;14.60;;;;;;6124098;23;20473;-88
2022/01/16 08:46:15;;;;;;;52.72;33.30;;;11.50;11.20;;;;;;6123820;23;20032;-87
2022/01/16 08:48:41;;;;;;;53.17;33.60;;;11.00;9.00;;;;;;6123618;23;20834;-87
2022/01/16 08:51:07;;;;;;;53.33;34.67;;;11.70;4.80;;;;;;6125004;23;20037;-82
2022/01/16 08:53:33;;;;;;;53.67;35.45;;;12.10;11.30;;;;;;6124206;23;20013;-85
2022/01/16 08:55:59;;;;;;;56.85;36.30;;;12.00;2.60;;;;;;6124796;23;20010;-84
2022/01/16 08:58:26;;;;;;;56.70;37.45;;;12.00;4.00;;;;;;6124077;23;20336;-84
2022/01/16 09:00:52;;;;;;;59.85;37.83;;;12.90;1.40;;;;;;6123328;23;20010;-84
2022/01/16 09:03:19;;;;;;;58.22;38.92;;;12.70;1.60;;;;;;6123237;23;20085;-84
2022/01/16 09:05:45;;;;;;;61.08;39.97;;;10.10;13.20;;;;;;6124245;23;20321;-86
2022/01/16 09:08:11;;;;;;;62.20;39.65;;;10.90;11.30;;;;;;6125617;23;20009;-85
2022/01/16 09:10:37;;;;;;;58.97;38.35;;;11.70;7.00;;;;;;6123355;23;20126;-85
2022/01/16 09:13:04;;;;;;;57.40;38.28;;;12.00;6.80;;;;;;6124879;23;20010;-85
2022/01/16 09:15:30;;;;;;;55.88;37.42;;;12.10;6.20;;;;;;6123709;23;20005;-85
2022/01/16 09:17:56;;;;;;;54.90;38.70;;;13.00;2.70;;;;;;6123175;23;20388;-84
2022/01/16 09:20:21;;;;;;;53.78;38.70;;;13.30;1.00;;;;;;6125216;23;19998;-85
2022/01/16 09:22:49;;;;;;;50.75;36.92;;;14.00;1.00;;;;;;6124899;23;20512;-85
2022/01/16 09:25:17;;;;;;;52.45;35.95;;;14.10;1.00;;;;;;6125002;23;20002;-86
2022/01/16 09:27:42;;;;;;;61.95;37.88;;;14.30;1.00;;;;;;6123680;23;20017;-85
2022/01/16 09:30:10;;;;;;;52.53;37.78;;;13.90;1.00;;;;;;6098329;23;20331;-90
2022/01/16 09:32:36;;;;;;;55.20;39.78;;;14.60;1.00;;;;;;6097688;23;20017;-86
2022/01/16 09:35:04;;;;;;;51.10;37.90;;;15.00;1.00;;;;;;6124732;23;20002;-86
2022/01/16 09:37:29;;;;;;;56.50;40.88;;;15.30;1.00;;;;;;6124575;23;20017;-85
2022/01/16 09:39:58;;;;;;;55.53;38.88;;;15.20;1.00;;;;;;6125542;23;20440;-86
2022/01/16 09:42:24;;;;;;;52.60;38.97;;;15.40;1.00;;;;;;6125351;23;20059;-86
2022/01/16 09:44:50;;;;;;;52.53;39.33;;;15.70;1.00;;;;;;6123602;23;20006;-92
2022/01/16 09:47:16;;;;;;;51.20;39.30;;;15.00;1.00;;;;;;6123871;23;20441;-87
2022/01/16 09:49:41;;;;;;;50.75;39.78;;;16.40;1.00;;;;;;6124833;23;20002;-85
2022/01/16 09:52:08;;;;;;;51.55;38.60;;;16.70;1.00;;;;;;6124017;23;20441;-85
2022/01/16 09:54:36;;;;;;;51.55;40.47;;;17.40;1.00;;;;;;6123860;23;20492;-85
2022/01/16 09:57:02;;;;;;;53.83;40.58;;;17.30;1.00;;;;;;6124475;23;20050;-84
2022/01/16 09:59:28;;;;;;;51.78;39.72;;;17.00;1.00;;;;;;6122678;23;20001;-84
2022/01/16 10:01:54;;;;;;;51.72;40.45;;;17.70;1.00;;;;;;6123510;23;20010;-85
2022/01/16 10:04:30;;;;;;;48.58;39.10;;;17.10;1.00;;;;;;6124658;23;20002;-85
2022/01/16 10:07:01;;;;;;;47.30;38.88;;;16.50;1.00;;;;;;6124771;23;20010;-91
2022/01/16 10:09:27;;;;;;;49.00;39.38;;;16.60;1.00;;;;;;6126391;23;20159;-86
2022/01/16 10:11:59;;;;;;;47.20;38.95;;;17.00;1.00;;;;;;6123453;23;20039;-85
2022/01/16 10:14:36;;;;;;;47.60;37.78;;;17.10;1.00;;;;;;6124835;23;20010;-85
2022/01/16 10:17:13;;;;;;;46.00;38.25;;;16.60;1.00;;;;;;6124051;23;20019;-85
2022/01/16 10:19:39;;;;;;;50.13;39.03;;;17.80;1.00;;;;;;6123671;23;20353;-85
2022/01/16 10:22:08;;;;;;;52.38;39.67;;;17.20;1.00;;;;;;6126756;23;20002;-87
2022/01/16 10:24:35;;;;;;;54.22;41.35;;;18.50;1.00;;;;;;6126955;23;20006;-86
2022/01/16 10:27:17;;;;;;;52.15;41.35;;;19.90;1.00;;;;;;6125622;23;20038;-88
2022/01/16 10:29:53;;;;;;;53.22;41.63;;;19.00;1.00;;;;;;6125815;23;20002;-88
2022/01/16 10:32:25;;;;;;;54.92;41.00;;;19.50;1.00;;;;;;6126645;23;20073;-88
2022/01/16 10:35:23;;;;;;;54.03;41.88;;;18.90;1.00;;;;;;6126811;23;20336;-89
2022/01/16 10:37:52;;;;;;;54.00;41.55;;;18.90;1.00;;;;;;6126978;23;20449;-88
2022/01/16 10:40:20;;;;;;;53.42;41.65;;;19.90;1.00;;;;;;6101001;23;20013;-88
2022/01/16 10:42:53;;;;;;;52.15;41.58;;;20.50;1.00;;;;;;6125648;23;20006;-88
2022/01/16 10:45:25;;;;;;;52.00;41.97;;;20.10;1.00;;;;;;6126187;23;19998;-88
2022/01/16 10:47:54;;;;;;;51.40;41.63;;;21.40;1.00;;;;;;6100574;23;20460;-88
2022/01/16 10:50:25;;;;;;;55.97;42.45;;;21.10;1.00;;;;;;6126489;23;20503;-88
2022/01/16 10:53:02;;;;;;;51.47;42.35;;;20.00;1.00;;;;;;6126158;23;20009;-87
2022/01/16 10:55:41;;;;;;;54.08;43.60;;;20.60;1.00;;;;;;6100812;23;20057;-86
2022/01/16 10:58:12;;;;;;;53.65;42.85;;;20.50;1.00;;;;;;6124803;23;20010;-89
2022/01/16 11:00:40;;;;;;;55.92;42.97;;;19.80;1.00;;;;;;6125639;23;20095;-86
2022/01/16 11:03:07;;;;;;;60.63;46.05;;;19.30;1.00;;;;;;6126292;23;20006;-87
2022/01/16 11:05:36;;;;;;;54.20;45.22;;;18.70;1.00;;;;;;6126246;23;20006;-85
2022/01/16 11:08:05;;;;;;;53.22;43.00;;;19.10;1.00;;;;;;6126382;23;19998;-86
2022/01/16 11:10:54;;;;;;;53.33;44.92;;;19.50;1.00;;;;;;6125702;23;20440;-86
2022/01/16 11:13:21;;;;;;;56.67;44.85;;;19.00;1.00;;;;;;6124712;23;20006;-86
2022/01/16 11:15:56;;;;;;;56.78;44.25;;;19.00;1.00;;;;;;6126233;23;20013;-87
2022/01/16 11:18:23;;;;;;;56.33;44.50;;;19.90;1.00;;;;;;6126980;23;20009;-90
2022/01/16 11:21:42;;;;;;;56.58;45.03;;;20.20;1.00;;;;;;6126315;23;20433;-88
2022/01/16 11:26:33;;;;;;;58.65;45.13;;;19.10;1.00;;;;;;6006771;23;20082;-90
2022/01/16 11:28:59;;;;;;;54.80;44.20;;;18.50;1.00;;;;;;6007741;23;20534;-88
2022/01/16 11:31:25;;;;;;;56.75;43.95;;;18.50;1.00;;;;;;6007645;23;20558;-87
2022/01/16 11:33:51;;;;;;;57.83;45.10;;;18.60;1.00;;;;;;6007418;23;20007;-86
2022/01/16 11:36:20;;;;;;;56.75;45.20;;;17.90;1.00;;;;;;6008268;23;20024;-86
2022/01/16 11:38:59;;;;;;;56.33;44.38;;;18.50;1.00;;;;;;6008888;23;20024;-86
2022/01/16 11:41:36;;;;;;;56.17;44.42;;;18.50;1.00;;;;;;6007047;23;20016;-86
2022/01/16 11:44:08;;;;;;;64.78;48.90;;;19.10;1.00;;;;;;6006659;23;20072;-86
2022/01/16 11:46:48;;;;;;;62.58;49.28;;;18.20;1.00;;;;;;6008398;23;20007;-85
2022/01/16 11:49:19;;;;;;;58.80;46.08;;;18.00;1.00;;;;;;6008551;23;20028;-86
2022/01/16 11:51:51;;;;;;;65.50;48.75;;;18.40;1.00;;;;;;6006766;23;20024;-85
2022/01/16 11:54:28;;;;;;;57.80;46.22;;;19.10;1.00;;;;;;6007635;23;20011;-86
2022/01/16 11:57:23;;;;;;;58.85;46.53;;;18.40;1.00;;;;;;6006089;23;20019;-85
2022/01/16 12:00:10;;;;;;;57.75;46.30;;;17.20;1.00;;;;;;6007450;23;20343;-85
2022/01/16 12:02:38;;;;;;;55.22;43.72;;;16.80;1.00;;;;;;6048963;23;20002;-85
2022/01/16 12:05:05;;;;;;;56.08;44.25;;;17.50;1.00;;;;;;6125450;23;20322;-85
2022/01/16 12:07:37;;;;;;;59.85;46.92;;;16.20;1.00;;;;;;6124557;23;20006;-85
2022/01/16 12:10:05;;;;;;;59.88;46.22;;;15.80;1.00;;;;;;6124941;23;20110;-85
2022/01/16 12:12:31;;;;;;;55.08;43.45;;;15.80;3.10;;;;;;6123241;23;20097;-85
2022/01/16 12:15:08;;;;;;;56.50;44.70;;;14.80;3.50;;;;;;6125537;23;20449;-85
2022/01/16 12:17:35;;;;;;;59.80;45.05;;;15.20;6.50;;;;;;6124961;23;20374;-85
2022/01/16 12:20:13;;;;;;;56.97;45.47;;;15.50;4.70;;;;;;6098795;23;20040;-85
2022/01/16 12:22:44;;;;;;;56.08;44.40;;;17.00;1.00;;;;;;6124937;23;20014;-85
2022/01/16 12:25:18;;;;;;;58.83;45.65;;;17.10;1.00;;;;;;6123965;23;20033;-85
2022/01/16 12:27:47;;;;;;;55.55;43.75;;;17.30;1.00;;;;;;6124209;23;20016;-86
2022/01/16 12:30:35;;;;;;;53.63;43.83;;;16.50;1.00;;;;;;6124964;23;20002;-85
2022/01/16 12:33:21;;;;;;;51.92;42.83;;;16.40;2.00;;;;;;6125854;23;20006;-85
2022/01/16 12:35:58;;;;;;;56.03;44.60;;;17.20;1.00;;;;;;6124496;23;20010;-85
2022/01/16 12:38:23;;;;;;;54.28;43.15;;;17.00;1.00;;;;;;6124444;23;20002;-85
2022/01/16 12:40:52;;;;;;;50.50;41.60;;;16.80;1.00;;;;;;6123070;23;20044;-85
2022/01/16 12:43:29;;;;;;;55.45;43.63;;;17.90;2.50;;;;;;6124629;23;20333;-85
2022/01/16 12:45:55;;;;;;;50.47;40.88;;;17.30;1.00;;;;;;6125033;23;20006;-85
2022/01/16 12:48:21;;;;;;;52.60;41.80;;;17.50;1.00;;;;;;6124884;23;20520;-86
2022/01/16 12:50:47;;;;;;;51.90;42.88;;;16.80;1.00;;;;;;6123701;23;20006;-85
2022/01/16 12:53:13;;;;;;;50.03;42.58;;;16.30;8.10;;;;;;6125670;23;20336;-86
2022/01/16 12:55:39;;;;;;;51.90;42.47;;;16.10;2.30;;;;;;6123112;23;20329;-85
2022/01/16 12:58:16;;;;;;;52.05;43.42;;;15.70;4.40;;;;;;6124323;23;20013;-85
2022/01/16 13:01:03;;;;;;;53.58;41.80;;;15.50;7.10;;;;;;6124490;23;20332;-85
2022/01/16 13:03:31;;;;;;;49.10;41.95;;;16.30;3.80;;;;;;6124384;23;20002;-85
2022/01/16 13:06:22;;;;;;;53.47;42.28;;;16.40;4.30;;;;;;6124628;23;20009;-85
2022/01/16 13:09:08;;;;;;;49.75;41.53;;;15.20;9.00;;;;;;6124891;23;20030;-85
2022/01/16 13:12:01;;;;;;;51.45;40.78;;;15.90;6.90;;;;;;6124049;23;20033;-85
2022/01/16 13:14:30;;;;;;;50.95;38.53;;;15.40;7.10;;;;;;6124821;23;20006;-85
2022/01/16 13:17:00;;;;;;;48.40;40.22;;;14.30;12.90;;;;;;6124403;23;20390;-85
2022/01/16 13:19:38;;;;;;;50.92;40.85;;;14.60;10.90;;;;;;6124527;23;19998;-85
2022/01/16 13:22:12;;;;;;;49.72;41.05;;;14.60;10.60;;;;;;6124571;23;20340;-85
2022/01/16 13:24:48;;;;;;;49.45;40.53;;;14.90;10.20;;;;;;6123165;23;20002;-85
2022/01/16 13:27:22;;;;;;;49.35;40.97;;;14.90;9.20;;;;;;6123449;23;20005;-85
2022/01/16 13:29:53;;;;;;;50.78;41.63;;;14.90;10.50;;;;;;6124053;23;20353;-85